sensor_id;sensor_type;location;lat;lon;timestamp;pressure;altitude;pressure_sealevel;temperature;humidity
45441;BME280;31189;38.790;-77.084;2023-12-07T00:00:22;101775.04;;;8.62;28.98
45441;BME280;31189;38.790;-77.084;2023-12-07T00:02:47;101768.11;;;6.47;29.30
45441;BME280;31189;38.790;-77.084;2023-12-07T00:05:12;101776.02;;;6.02;30.41
45441;BME280;31189;38.790;-77.084;2023-12-07T00:07:38;101777.09;;;7.74;29.38
45441;BME280;31189;38.790;-77.084;2023-12-07T00:10:05;101775.16;;;7.87;29.79
45441;BME280;31189;38.790;-77.084;2023-12-07T00:12:30;101772.33;;;6.23;31.40
45441;BME280;31189;38.790;-77.084;2023-12-07T00:14:55;101772.36;;;6.70;30.70
45441;BME280;31189;38.790;-77.084;2023-12-07T00:17:21;101770.92;;;6.83;30.51
45441;BME280;31189;38.790;-77.084;2023-12-07T00:19:46;101780.33;;;7.61;29.66
45441;BME280;31189;38.790;-77.084;2023-12-07T00:22:13;101771.76;;;6.77;30.10
45441;BME280;31189;38.790;-77.084;2023-12-07T00:24:38;101768.22;;;5.84;30.64
45441;BME280;31189;38.790;-77.084;2023-12-07T00:27:04;101764.23;;;5.85;31.56
45441;BME280;31189;38.790;-77.084;2023-12-07T00:29:29;101768.09;;;7.87;30.36
45441;BME280;31189;38.790;-77.084;2023-12-07T00:31:55;101772.44;;;7.58;30.88
45441;BME280;31189;38.790;-77.084;2023-12-07T00:34:21;101768.36;;;4.13;32.25
45441;BME280;31189;38.790;-77.084;2023-12-07T00:36:46;101766.24;;;6.21;31.11
45441;BME280;31189;38.790;-77.084;2023-12-07T00:39:12;101772.71;;;7.17;29.80
45441;BME280;31189;38.790;-77.084;2023-12-07T00:41:38;101771.33;;;8.19;28.83
45441;BME280;31189;38.790;-77.084;2023-12-07T00:44:03;101767.57;;;6.21;30.74
45441;BME280;31189;38.790;-77.084;2023-12-07T00:46:29;101771.74;;;6.10;30.82
45441;BME280;31189;38.790;-77.084;2023-12-07T00:48:55;101767.18;;;6.25;30.94
45441;BME280;31189;38.790;-77.084;2023-12-07T00:51:22;101766.34;;;6.00;32.03
45441;BME280;31189;38.790;-77.084;2023-12-07T00:53:48;101768.83;;;4.72;32.57
45441;BME280;31189;38.790;-77.084;2023-12-07T00:56:12;101765.67;;;6.42;31.70
45441;BME280;31189;38.790;-77.084;2023-12-07T01:01:03;101757.09;;;6.08;31.68
45441;BME280;31189;38.790;-77.084;2023-12-07T01:03:29;101757.68;;;3.62;33.47
45441;BME280;31189;38.790;-77.084;2023-12-07T01:05:56;101757.01;;;6.16;31.64
45441;BME280;31189;38.790;-77.084;2023-12-07T01:08:21;101757.30;;;7.07;30.88
45441;BME280;31189;38.790;-77.084;2023-12-07T01:10:46;101761.81;;;7.62;30.47
45441;BME280;31189;38.790;-77.084;2023-12-07T01:13:14;101765.63;;;6.75;30.77
45441;BME280;31189;38.790;-77.084;2023-12-07T01:15:39;101769.50;;;5.68;31.83
45441;BME280;31189;38.790;-77.084;2023-12-07T01:18:03;101767.07;;;6.24;31.29
45441;BME280;31189;38.790;-77.084;2023-12-07T01:20:33;101771.88;;;6.05;31.15
45441;BME280;31189;38.790;-77.084;2023-12-07T01:22:57;101774.77;;;5.10;32.84
45441;BME280;31189;38.790;-77.084;2023-12-07T01:25:23;101775.40;;;4.02;34.04
45441;BME280;31189;38.790;-77.084;2023-12-07T01:27:48;101776.98;;;1.41;36.68
45441;BME280;31189;38.790;-77.084;2023-12-07T01:30:13;101780.16;;;1.43;37.80
45441;BME280;31189;38.790;-77.084;2023-12-07T01:32:40;101784.52;;;4.64;34.93
45441;BME280;31189;38.790;-77.084;2023-12-07T01:35:08;101781.78;;;3.71;35.55
45441;BME280;31189;38.790;-77.084;2023-12-07T01:37:33;101790.32;;;4.50;33.89
45441;BME280;31189;38.790;-77.084;2023-12-07T01:39:55;101793.31;;;3.97;34.31
45441;BME280;31189;38.790;-77.084;2023-12-07T01:42:25;101797.17;;;3.32;34.30
45441;BME280;31189;38.790;-77.084;2023-12-07T01:44:49;101791.13;;;3.40;34.92
45441;BME280;31189;38.790;-77.084;2023-12-07T01:47:13;101791.49;;;2.67;35.59
45441;BME280;31189;38.790;-77.084;2023-12-07T01:49:39;101794.18;;;2.32;36.09
45441;BME280;31189;38.790;-77.084;2023-12-07T01:52:04;101789.57;;;2.84;36.05
45441;BME280;31189;38.790;-77.084;2023-12-07T01:54:30;101794.54;;;4.52;33.73
45441;BME280;31189;38.790;-77.084;2023-12-07T01:56:55;101795.91;;;4.47;33.97
45441;BME280;31189;38.790;-77.084;2023-12-07T01:59:20;101797.61;;;3.13;34.57
45441;BME280;31189;38.790;-77.084;2023-12-07T02:01:48;101802.46;;;2.20;35.61
45441;BME280;31189;38.790;-77.084;2023-12-07T02:04:12;101809.29;;;4.49;34.07
45441;BME280;31189;38.790;-77.084;2023-12-07T02:06:37;101804.11;;;2.95;35.37
45441;BME280;31189;38.790;-77.084;2023-12-07T02:09:08;101807.06;;;3.55;35.87
45441;BME280;31189;38.790;-77.084;2023-12-07T02:11:28;101806.81;;;4.18;34.37
45441;BME280;31189;38.790;-77.084;2023-12-07T02:13:54;101802.70;;;3.12;33.52
45441;BME280;31189;38.790;-77.084;2023-12-07T02:16:27;101798.61;;;5.57;31.71
45441;BME280;31189;38.790;-77.084;2023-12-07T02:18:52;101797.58;;;6.22;31.07
45441;BME280;31189;38.790;-77.084;2023-12-07T02:21:18;101801.13;;;2.02;35.69
45441;BME280;31189;38.790;-77.084;2023-12-07T02:23:38;101795.51;;;2.40;35.19
45441;BME280;31189;38.790;-77.084;2023-12-07T02:26:08;101802.95;;;3.71;34.60
45441;BME280;31189;38.790;-77.084;2023-12-07T02:28:33;101801.33;;;4.86;33.23
45441;BME280;31189;38.790;-77.084;2023-12-07T02:31:00;101807.31;;;5.11;32.71
45441;BME280;31189;38.790;-77.084;2023-12-07T02:33:20;101806.63;;;6.18;32.69
45441;BME280;31189;38.790;-77.084;2023-12-07T02:35:46;101811.47;;;3.87;33.85
45441;BME280;31189;38.790;-77.084;2023-12-07T02:38:12;101811.64;;;1.76;35.85
45441;BME280;31189;38.790;-77.084;2023-12-07T02:40:38;101818.60;;;2.20;35.88
45441;BME280;31189;38.790;-77.084;2023-12-07T02:43:04;101815.63;;;3.55;35.68
45441;BME280;31189;38.790;-77.084;2023-12-07T02:45:31;101828.34;;;3.22;35.12
45441;BME280;31189;38.790;-77.084;2023-12-07T02:47:58;101821.51;;;2.79;35.23
45441;BME280;31189;38.790;-77.084;2023-12-07T02:50:21;101827.05;;;3.82;34.77
45441;BME280;31189;38.790;-77.084;2023-12-07T02:52:46;101826.73;;;4.24;33.52
45441;BME280;31189;38.790;-77.084;2023-12-07T02:55:11;101833.37;;;3.93;34.21
45441;BME280;31189;38.790;-77.084;2023-12-07T02:57:37;101829.85;;;2.20;36.36
45441;BME280;31189;38.790;-77.084;2023-12-07T03:00:07;101833.90;;;3.47;35.10
45441;BME280;31189;38.790;-77.084;2023-12-07T03:02:29;101830.98;;;3.27;35.31
45441;BME280;31189;38.790;-77.084;2023-12-07T03:04:58;101830.95;;;3.34;35.04
45441;BME280;31189;38.790;-77.084;2023-12-07T03:07:22;101832.92;;;4.35;33.62
45441;BME280;31189;38.790;-77.084;2023-12-07T03:09:46;101830.31;;;1.37;35.39
45441;BME280;31189;38.790;-77.084;2023-12-07T03:12:15;101832.40;;;4.45;33.46
45441;BME280;31189;38.790;-77.084;2023-12-07T03:14:39;101832.03;;;5.02;33.02
45441;BME280;31189;38.790;-77.084;2023-12-07T03:19:29;101825.59;;;6.86;30.31
45441;BME280;31189;38.790;-77.084;2023-12-07T03:21:55;101831.25;;;5.72;31.14
45441;BME280;31189;38.790;-77.084;2023-12-07T03:24:22;101832.86;;;7.07;30.17
45441;BME280;31189;38.790;-77.084;2023-12-07T03:26:50;101838.93;;;4.92;32.00
45441;BME280;31189;38.790;-77.084;2023-12-07T03:29:11;101842.64;;;7.54;30.12
45441;BME280;31189;38.790;-77.084;2023-12-07T03:31:38;101841.56;;;4.13;32.00
45441;BME280;31189;38.790;-77.084;2023-12-07T03:34:05;101836.95;;;6.14;30.64
45441;BME280;31189;38.790;-77.084;2023-12-07T03:36:32;101838.72;;;3.53;33.20
45441;BME280;31189;38.790;-77.084;2023-12-07T03:38:57;101837.81;;;5.13;32.26
45441;BME280;31189;38.790;-77.084;2023-12-07T03:41:20;101841.69;;;3.80;33.12
45441;BME280;31189;38.790;-77.084;2023-12-07T03:43:45;101849.36;;;4.10;33.24
45441;BME280;31189;38.790;-77.084;2023-12-07T03:46:11;101850.98;;;4.80;32.28
45441;BME280;31189;38.790;-77.084;2023-12-07T03:48:39;101849.99;;;3.03;34.08
45441;BME280;31189;38.790;-77.084;2023-12-07T03:51:03;101854.72;;;3.88;33.66
45441;BME280;31189;38.790;-77.084;2023-12-07T03:53:29;101851.48;;;1.87;35.55
45441;BME280;31189;38.790;-77.084;2023-12-07T03:55:54;101859.24;;;4.71;32.75
45441;BME280;31189;38.790;-77.084;2023-12-07T03:58:19;101858.69;;;5.61;31.17
45441;BME280;31189;38.790;-77.084;2023-12-07T04:00:46;101856.96;;;2.89;33.40
45441;BME280;31189;38.790;-77.084;2023-12-07T04:03:11;101856.41;;;5.42;31.67
45441;BME280;31189;38.790;-77.084;2023-12-07T04:05:36;101858.53;;;5.79;31.14
45441;BME280;31189;38.790;-77.084;2023-12-07T04:08:03;101860.07;;;5.86;30.97
45441;BME280;31189;38.790;-77.084;2023-12-07T04:10:29;101857.35;;;6.78;29.94
45441;BME280;31189;38.790;-77.084;2023-12-07T04:12:53;101854.58;;;5.31;31.43
45441;BME280;31189;38.790;-77.084;2023-12-07T04:15:23;101857.65;;;4.94;31.81
45441;BME280;31189;38.790;-77.084;2023-12-07T04:17:44;101856.40;;;5.42;31.28
45441;BME280;31189;38.790;-77.084;2023-12-07T04:20:12;101859.70;;;4.86;31.62
45441;BME280;31189;38.790;-77.084;2023-12-07T04:22:36;101861.37;;;6.22;31.31
45441;BME280;31189;38.790;-77.084;2023-12-07T04:25:03;101862.19;;;6.68;30.04
45441;BME280;31189;38.790;-77.084;2023-12-07T04:27:28;101858.76;;;5.62;30.97
45441;BME280;31189;38.790;-77.084;2023-12-07T04:29:54;101855.28;;;6.33;30.43
45441;BME280;31189;38.790;-77.084;2023-12-07T04:32:21;101855.14;;;5.00;31.45
45441;BME280;31189;38.790;-77.084;2023-12-07T04:34:44;101843.09;;;5.82;31.74
45441;BME280;31189;38.790;-77.084;2023-12-07T04:37:12;101846.06;;;5.17;31.97
45441;BME280;31189;38.790;-77.084;2023-12-07T04:39:37;101845.81;;;5.67;31.82
45441;BME280;31189;38.790;-77.084;2023-12-07T04:42:01;101844.29;;;5.40;31.89
45441;BME280;31189;38.790;-77.084;2023-12-07T04:44:26;101834.94;;;5.36;31.16
45441;BME280;31189;38.790;-77.084;2023-12-07T04:46:53;101833.50;;;6.62;31.07
45441;BME280;31189;38.790;-77.084;2023-12-07T04:49:18;101831.68;;;6.33;30.27
45441;BME280;31189;38.790;-77.084;2023-12-07T04:51:43;101830.22;;;7.38;30.08
45441;BME280;31189;38.790;-77.084;2023-12-07T04:54:09;101829.42;;;7.31;29.31
45441;BME280;31189;38.790;-77.084;2023-12-07T04:56:34;101835.55;;;7.47;30.08
45441;BME280;31189;38.790;-77.084;2023-12-07T04:59:00;101844.16;;;8.19;29.44
45441;BME280;31189;38.790;-77.084;2023-12-07T05:01:26;101847.19;;;7.75;29.32
45441;BME280;31189;38.790;-77.084;2023-12-07T05:03:52;101847.08;;;8.08;28.25
45441;BME280;31189;38.790;-77.084;2023-12-07T05:06:17;101849.06;;;7.40;29.17
45441;BME280;31189;38.790;-77.084;2023-12-07T05:08:43;101847.99;;;6.79;28.68
45441;BME280;31189;38.790;-77.084;2023-12-07T05:11:09;101845.45;;;7.61;28.97
45441;BME280;31189;38.790;-77.084;2023-12-07T05:13:34;101846.71;;;7.75;28.54
45441;BME280;31189;38.790;-77.084;2023-12-07T05:16:00;101852.82;;;7.60;29.33
45441;BME280;31189;38.790;-77.084;2023-12-07T05:18:26;101844.09;;;7.44;30.13
45441;BME280;31189;38.790;-77.084;2023-12-07T05:20:51;101841.19;;;7.84;29.29
45441;BME280;31189;38.790;-77.084;2023-12-07T05:23:17;101844.43;;;7.91;28.72
45441;BME280;31189;38.790;-77.084;2023-12-07T05:25:43;101848.93;;;7.54;29.59
45441;BME280;31189;38.790;-77.084;2023-12-07T05:28:08;101852.09;;;8.20;28.43
45441;BME280;31189;38.790;-77.084;2023-12-07T05:30:34;101849.09;;;6.86;29.39
45441;BME280;31189;38.790;-77.084;2023-12-07T05:33:00;101843.29;;;5.70;30.27
45441;BME280;31189;38.790;-77.084;2023-12-07T05:35:25;101843.35;;;7.40;29.29
45441;BME280;31189;38.790;-77.084;2023-12-07T05:37:51;101842.76;;;7.36;29.28
45441;BME280;31189;38.790;-77.084;2023-12-07T05:40:17;101838.29;;;6.33;29.45
45441;BME280;31189;38.790;-77.084;2023-12-07T05:42:42;101835.76;;;7.04;29.23
45441;BME280;31189;38.790;-77.084;2023-12-07T05:45:09;101835.56;;;7.12;30.23
45441;BME280;31189;38.790;-77.084;2023-12-07T05:47:34;101834.25;;;5.23;31.95
45441;BME280;31189;38.790;-77.084;2023-12-07T05:49:59;101828.71;;;6.14;31.02
45441;BME280;31189;38.790;-77.084;2023-12-07T05:52:25;101827.97;;;6.82;30.98
45441;BME280;31189;38.790;-77.084;2023-12-07T05:54:51;101826.80;;;7.18;30.18
45441;BME280;31189;38.790;-77.084;2023-12-07T05:57:16;101821.09;;;6.61;31.56
45441;BME280;31189;38.790;-77.084;2023-12-07T05:59:42;101819.19;;;7.10;30.31
45441;BME280;31189;38.790;-77.084;2023-12-07T06:02:08;101816.87;;;6.61;31.52
45441;BME280;31189;38.790;-77.084;2023-12-07T06:04:34;101826.53;;;6.65;31.69
45441;BME280;31189;38.790;-77.084;2023-12-07T06:06:59;101821.67;;;6.26;31.78
45441;BME280;31189;38.790;-77.084;2023-12-07T06:09:25;101823.65;;;6.47;32.17
45441;BME280;31189;38.790;-77.084;2023-12-07T06:11:50;101818.41;;;6.86;31.28
45441;BME280;31189;38.790;-77.084;2023-12-07T06:14:16;101816.08;;;6.88;31.81
45441;BME280;31189;38.790;-77.084;2023-12-07T06:16:41;101812.65;;;6.19;32.89
45441;BME280;31189;38.790;-77.084;2023-12-07T06:19:07;101811.74;;;6.31;32.37
45441;BME280;31189;38.790;-77.084;2023-12-07T06:21:33;101807.83;;;6.30;32.93
45441;BME280;31189;38.790;-77.084;2023-12-07T06:23:59;101809.64;;;6.40;32.86
45441;BME280;31189;38.790;-77.084;2023-12-07T06:26:25;101808.23;;;5.55;33.74
45441;BME280;31189;38.790;-77.084;2023-12-07T06:28:50;101811.53;;;6.25;33.19
45441;BME280;31189;38.790;-77.084;2023-12-07T06:31:16;101815.98;;;5.99;32.82
45441;BME280;31189;38.790;-77.084;2023-12-07T06:33:41;101824.21;;;5.18;33.82
45441;BME280;31189;38.790;-77.084;2023-12-07T06:36:08;101826.06;;;5.24;33.89
45441;BME280;31189;38.790;-77.084;2023-12-07T06:38:33;101825.31;;;5.39;33.45
45441;BME280;31189;38.790;-77.084;2023-12-07T06:40:59;101828.17;;;5.55;32.85
45441;BME280;31189;38.790;-77.084;2023-12-07T06:43:24;101828.12;;;5.71;33.60
45441;BME280;31189;38.790;-77.084;2023-12-07T06:45:50;101824.34;;;5.65;33.44
45441;BME280;31189;38.790;-77.084;2023-12-07T06:48:15;101830.66;;;5.86;32.73
45441;BME280;31189;38.790;-77.084;2023-12-07T06:50:41;101834.36;;;4.75;34.33
45441;BME280;31189;38.790;-77.084;2023-12-07T06:53:07;101837.55;;;4.82;34.56
45441;BME280;31189;38.790;-77.084;2023-12-07T06:55:33;101838.57;;;5.01;34.35
45441;BME280;31189;38.790;-77.084;2023-12-07T06:57:58;101838.41;;;4.64;34.81
45441;BME280;31189;38.790;-77.084;2023-12-07T07:00:24;101843.53;;;5.02;34.79
45441;BME280;31189;38.790;-77.084;2023-12-07T07:02:50;101844.15;;;4.33;35.96
45441;BME280;31189;38.790;-77.084;2023-12-07T07:05:15;101843.94;;;4.68;35.88
45441;BME280;31189;38.790;-77.084;2023-12-07T07:07:41;101846.24;;;4.34;35.86
45441;BME280;31189;38.790;-77.084;2023-12-07T07:10:08;101845.82;;;4.62;35.62
45441;BME280;31189;38.790;-77.084;2023-12-07T07:12:32;101846.44;;;4.74;35.54
45441;BME280;31189;38.790;-77.084;2023-12-07T07:14:58;101846.67;;;4.74;35.50
45441;BME280;31189;38.790;-77.084;2023-12-07T07:17:24;101848.47;;;5.08;35.46
45441;BME280;31189;38.790;-77.084;2023-12-07T07:19:50;101847.58;;;4.89;35.11
45441;BME280;31189;38.790;-77.084;2023-12-07T07:22:15;101840.14;;;5.42;34.28
45441;BME280;31189;38.790;-77.084;2023-12-07T07:24:41;101844.62;;;4.58;35.73
45441;BME280;31189;38.790;-77.084;2023-12-07T07:27:07;101845.64;;;4.93;35.81
45441;BME280;31189;38.790;-77.084;2023-12-07T07:29:32;101845.94;;;5.16;35.33
45441;BME280;31189;38.790;-77.084;2023-12-07T07:31:58;101842.37;;;4.21;36.11
45441;BME280;31189;38.790;-77.084;2023-12-07T07:34:24;101837.69;;;4.54;35.98
45441;BME280;31189;38.790;-77.084;2023-12-07T07:36:50;101838.03;;;4.95;35.39
45441;BME280;31189;38.790;-77.084;2023-12-07T07:39:15;101830.98;;;5.08;35.29
45441;BME280;31189;38.790;-77.084;2023-12-07T07:41:41;101824.44;;;4.99;34.72
45441;BME280;31189;38.790;-77.084;2023-12-07T07:44:07;101816.69;;;4.31;36.06
45441;BME280;31189;38.790;-77.084;2023-12-07T07:46:32;101816.21;;;4.72;35.67
45441;BME280;31189;38.790;-77.084;2023-12-07T07:48:58;101816.95;;;4.73;35.85
45441;BME280;31189;38.790;-77.084;2023-12-07T07:51:24;101814.34;;;4.09;36.46
45441;BME280;31189;38.790;-77.084;2023-12-07T07:53:49;101818.46;;;3.23;38.25
45441;BME280;31189;38.790;-77.084;2023-12-07T07:56:15;101826.88;;;4.34;37.32
45441;BME280;31189;38.790;-77.084;2023-12-07T07:58:41;101839.09;;;4.38;36.64
45441;BME280;31189;38.790;-77.084;2023-12-07T08:01:07;101854.29;;;3.26;37.98
45441;BME280;31189;38.790;-77.084;2023-12-07T08:03:32;101850.02;;;2.97;38.67
45441;BME280;31189;38.790;-77.084;2023-12-07T08:05:58;101852.43;;;4.54;36.99
45441;BME280;31189;38.790;-77.084;2023-12-07T08:08:24;101852.75;;;3.92;37.83
45441;BME280;31189;38.790;-77.084;2023-12-07T08:10:50;101846.58;;;3.89;37.38
45441;BME280;31189;38.790;-77.084;2023-12-07T08:13:15;101851.22;;;3.23;37.92
45441;BME280;31189;38.790;-77.084;2023-12-07T08:15:41;101856.22;;;4.24;37.02
45441;BME280;31189;38.790;-77.084;2023-12-07T08:18:07;101852.68;;;4.86;36.09
45441;BME280;31189;38.790;-77.084;2023-12-07T08:20:32;101849.53;;;4.71;36.13
45441;BME280;31189;38.790;-77.084;2023-12-07T08:22:58;101839.16;;;4.01;36.89
45441;BME280;31189;38.790;-77.084;2023-12-07T08:25:24;101840.12;;;4.43;36.15
45441;BME280;31189;38.790;-77.084;2023-12-07T08:27:49;101833.77;;;4.42;36.57
45441;BME280;31189;38.790;-77.084;2023-12-07T08:30:16;101836.69;;;4.25;37.44
45441;BME280;31189;38.790;-77.084;2023-12-07T08:32:40;101835.47;;;4.16;37.05
45441;BME280;31189;38.790;-77.084;2023-12-07T08:35:06;101837.14;;;5.05;35.99
45441;BME280;31189;38.790;-77.084;2023-12-07T08:37:32;101842.43;;;4.55;36.24
45441;BME280;31189;38.790;-77.084;2023-12-07T08:39:57;101839.97;;;4.59;36.22
45441;BME280;31189;38.790;-77.084;2023-12-07T08:42:23;101837.60;;;4.13;36.89
45441;BME280;31189;38.790;-77.084;2023-12-07T08:44:49;101839.83;;;4.81;36.04
45441;BME280;31189;38.790;-77.084;2023-12-07T08:47:14;101844.96;;;5.47;35.57
45441;BME280;31189;38.790;-77.084;2023-12-07T08:49:40;101844.19;;;5.25;35.56
45441;BME280;31189;38.790;-77.084;2023-12-07T08:52:06;101844.85;;;5.10;35.30
45441;BME280;31189;38.790;-77.084;2023-12-07T08:54:31;101836.16;;;4.74;35.70
45441;BME280;31189;38.790;-77.084;2023-12-07T08:56:57;101831.49;;;5.11;35.91
45441;BME280;31189;38.790;-77.084;2023-12-07T08:59:23;101833.93;;;4.42;36.20
45441;BME280;31189;38.790;-77.084;2023-12-07T09:01:49;101824.24;;;4.19;36.26
45441;BME280;31189;38.790;-77.084;2023-12-07T09:04:14;101808.44;;;2.94;37.53
45441;BME280;31189;38.790;-77.084;2023-12-07T09:06:40;101811.01;;;4.25;37.42
45441;BME280;31189;38.790;-77.084;2023-12-07T09:09:05;101812.57;;;4.08;36.35
45441;BME280;31189;38.790;-77.084;2023-12-07T09:11:31;101815.05;;;3.69;37.41
45441;BME280;31189;38.790;-77.084;2023-12-07T09:13:57;101815.44;;;3.74;38.33
45441;BME280;31189;38.790;-77.084;2023-12-07T09:16:22;101817.85;;;4.38;37.56
45441;BME280;31189;38.790;-77.084;2023-12-07T09:18:48;101829.67;;;4.15;37.26
45441;BME280;31189;38.790;-77.084;2023-12-07T09:21:14;101835.69;;;3.97;37.47
45441;BME280;31189;38.790;-77.084;2023-12-07T09:23:39;101832.07;;;4.34;37.27
45441;BME280;31189;38.790;-77.084;2023-12-07T09:26:05;101827.02;;;5.04;35.99
45441;BME280;31189;38.790;-77.084;2023-12-07T09:28:32;101835.51;;;0.04;40.98
45441;BME280;31189;38.790;-77.084;2023-12-07T09:30:56;101845.98;;;2.83;39.62
45441;BME280;31189;38.790;-77.084;2023-12-07T09:33:22;101849.60;;;3.67;37.41
45441;BME280;31189;38.790;-77.084;2023-12-07T09:35:48;101858.33;;;3.88;36.95
45441;BME280;31189;38.790;-77.084;2023-12-07T09:38:13;101862.92;;;4.21;36.26
45441;BME280;31189;38.790;-77.084;2023-12-07T09:40:39;101865.68;;;5.08;35.35
45441;BME280;31189;38.790;-77.084;2023-12-07T09:43:05;101864.17;;;4.92;35.30
45441;BME280;31189;38.790;-77.084;2023-12-07T09:45:30;101864.18;;;3.96;35.94
45441;BME280;31189;38.790;-77.084;2023-12-07T09:47:56;101872.04;;;4.77;34.94
45441;BME280;31189;38.790;-77.084;2023-12-07T09:50:23;101876.84;;;4.72;35.13
45441;BME280;31189;38.790;-77.084;2023-12-07T09:52:48;101866.98;;;4.76;34.85
45441;BME280;31189;38.790;-77.084;2023-12-07T09:55:13;101869.72;;;5.53;34.05
45441;BME280;31189;38.790;-77.084;2023-12-07T09:57:39;101870.53;;;4.80;33.95
45441;BME280;31189;38.790;-77.084;2023-12-07T10:00:05;101876.56;;;5.44;33.50
45441;BME280;31189;38.790;-77.084;2023-12-07T10:02:30;101875.60;;;4.85;34.58
45441;BME280;31189;38.790;-77.084;2023-12-07T10:05:05;101873.66;;;4.88;34.54
45441;BME280;31189;38.790;-77.084;2023-12-07T10:07:30;101860.66;;;5.10;34.51
45441;BME280;31189;38.790;-77.084;2023-12-07T10:09:47;101858.33;;;5.06;35.45
45441;BME280;31189;38.790;-77.084;2023-12-07T10:12:12;101857.26;;;5.48;34.64
45441;BME280;31189;38.790;-77.084;2023-12-07T10:14:38;101853.77;;;5.03;34.89
45441;BME280;31189;38.790;-77.084;2023-12-07T10:17:04;101853.11;;;4.88;34.83
45441;BME280;31189;38.790;-77.084;2023-12-07T10:19:29;101851.34;;;4.57;35.28
45441;BME280;31189;38.790;-77.084;2023-12-07T10:21:55;101850.62;;;5.25;35.31
45441;BME280;31189;38.790;-77.084;2023-12-07T10:24:22;101855.70;;;5.03;35.51
45441;BME280;31189;38.790;-77.084;2023-12-07T10:26:48;101860.11;;;5.39;34.97
45441;BME280;31189;38.790;-77.084;2023-12-07T10:29:12;101855.29;;;4.56;36.21
45441;BME280;31189;38.790;-77.084;2023-12-07T10:31:38;101852.53;;;5.16;35.28
45441;BME280;31189;38.790;-77.084;2023-12-07T10:34:05;101859.16;;;4.16;36.97
45441;BME280;31189;38.790;-77.084;2023-12-07T10:36:29;101869.72;;;4.84;36.02
45441;BME280;31189;38.790;-77.084;2023-12-07T10:38:54;101876.27;;;5.45;35.62
45441;BME280;31189;38.790;-77.084;2023-12-07T10:41:21;101887.01;;;5.50;35.30
45441;BME280;31189;38.790;-77.084;2023-12-07T10:43:49;101893.76;;;5.63;34.90
45441;BME280;31189;38.790;-77.084;2023-12-07T10:46:14;101911.97;;;5.44;35.40
45441;BME280;31189;38.790;-77.084;2023-12-07T10:48:38;101910.59;;;5.25;35.73
45441;BME280;31189;38.790;-77.084;2023-12-07T10:51:07;101886.28;;;4.60;35.30
45441;BME280;31189;38.790;-77.084;2023-12-07T10:53:34;101879.67;;;4.78;35.41
45441;BME280;31189;38.790;-77.084;2023-12-07T10:55:56;101866.30;;;3.53;35.71
45441;BME280;31189;38.790;-77.084;2023-12-07T10:58:20;101861.78;;;4.54;34.41
45441;BME280;31189;38.790;-77.084;2023-12-07T11:00:46;101862.51;;;5.44;33.48
45441;BME280;31189;38.790;-77.084;2023-12-07T11:03:13;101863.84;;;4.00;34.70
45441;BME280;31189;38.790;-77.084;2023-12-07T11:05:37;101877.92;;;4.91;34.55
45441;BME280;31189;38.790;-77.084;2023-12-07T11:08:07;101881.33;;;4.54;33.93
45441;BME280;31189;38.790;-77.084;2023-12-07T11:10:33;101873.30;;;5.73;33.34
45441;BME280;31189;38.790;-77.084;2023-12-07T11:13:00;101888.94;;;4.42;33.60
45441;BME280;31189;38.790;-77.084;2023-12-07T11:15:20;101885.05;;;6.15;32.61
45441;BME280;31189;38.790;-77.084;2023-12-07T11:17:51;101879.92;;;6.06;32.73
45441;BME280;31189;38.790;-77.084;2023-12-07T11:20:18;101876.70;;;6.44;32.09
45441;BME280;31189;38.790;-77.084;2023-12-07T11:22:37;101879.05;;;6.55;32.04
45441;BME280;31189;38.790;-77.084;2023-12-07T11:25:04;101868.09;;;6.54;32.11
45441;BME280;31189;38.790;-77.084;2023-12-07T11:27:30;101865.35;;;6.59;32.48
45441;BME280;31189;38.790;-77.084;2023-12-07T11:29:54;101880.54;;;5.81;32.34
45441;BME280;31189;38.790;-77.084;2023-12-07T11:32:20;101887.21;;;5.33;33.13
45441;BME280;31189;38.790;-77.084;2023-12-07T11:34:45;101895.78;;;6.10;32.24
45441;BME280;31189;38.790;-77.084;2023-12-07T11:37:16;101885.72;;;6.85;31.48
45441;BME280;31189;38.790;-77.084;2023-12-07T11:39:37;101879.64;;;6.63;31.68
45441;BME280;31189;38.790;-77.084;2023-12-07T11:42:07;101882.68;;;6.91;31.30
45441;BME280;31189;38.790;-77.084;2023-12-07T11:44:33;101888.02;;;7.16;31.14
45441;BME280;31189;38.790;-77.084;2023-12-07T11:46:53;101897.74;;;7.28;31.15
45441;BME280;31189;38.790;-77.084;2023-12-07T11:49:20;101898.94;;;6.72;31.50
45441;BME280;31189;38.790;-77.084;2023-12-07T11:51:44;101910.43;;;6.90;31.24
45441;BME280;31189;38.790;-77.084;2023-12-07T11:54:10;101910.06;;;6.85;30.74
45441;BME280;31189;38.790;-77.084;2023-12-07T11:56:36;101910.32;;;7.53;30.45
45441;BME280;31189;38.790;-77.084;2023-12-07T11:59:01;101912.72;;;7.86;30.42
45441;BME280;31189;38.790;-77.084;2023-12-07T12:01:28;101914.04;;;7.55;30.40
45441;BME280;31189;38.790;-77.084;2023-12-07T12:03:54;101912.18;;;7.14;31.70
45441;BME280;31189;38.790;-77.084;2023-12-07T12:06:18;101904.54;;;6.78;32.45
45441;BME280;31189;38.790;-77.084;2023-12-07T12:08:44;101897.70;;;7.20;31.19
45441;BME280;31189;38.790;-77.084;2023-12-07T12:11:10;101899.63;;;7.28;31.33
45441;BME280;31189;38.790;-77.084;2023-12-07T12:13:37;101876.24;;;7.00;31.05
45441;BME280;31189;38.790;-77.084;2023-12-07T12:16:02;101864.59;;;6.33;31.52
45441;BME280;31189;38.790;-77.084;2023-12-07T12:18:27;101858.91;;;7.40;30.70
45441;BME280;31189;38.790;-77.084;2023-12-07T12:20:53;101867.33;;;7.27;30.57
45441;BME280;31189;38.790;-77.084;2023-12-07T12:23:18;101868.09;;;8.07;30.15
45441;BME280;31189;38.790;-77.084;2023-12-07T12:25:45;101869.54;;;8.26;29.74
45441;BME280;31189;38.790;-77.084;2023-12-07T12:28:10;101871.50;;;8.03;30.12
45441;BME280;31189;38.790;-77.084;2023-12-07T12:30:35;101863.94;;;8.18;29.41
45441;BME280;31189;38.790;-77.084;2023-12-07T12:33:00;101858.71;;;7.69;31.58
45441;BME280;31189;38.790;-77.084;2023-12-07T12:35:26;101863.36;;;7.36;31.74